createdAt,value
2022-11-23T00:04:17.471Z,16.2
2022-11-23T00:09:23.587Z,16.2
2022-11-23T00:14:29.630Z,16.1
2022-11-23T00:19:35.753Z,16.1
2022-11-23T00:24:41.906Z,16.1
2022-11-23T00:29:47.966Z,16.1
2022-11-23T00:34:53.955Z,16.1
2022-11-23T00:40:00.157Z,16.1
2022-11-23T00:45:05.161Z,16.1
2022-11-23T00:55:17.338Z,16.1
2022-11-23T01:00:23.438Z,16.1
2022-11-23T01:05:29.530Z,16.1
2022-11-23T01:10:35.613Z,16.1
2022-11-23T01:15:41.707Z,16.1
2022-11-23T01:20:47.795Z,16.1
2022-11-23T01:25:53.898Z,16
2022-11-23T01:31:00.017Z,16
2022-11-23T01:36:06.065Z,16
2022-11-23T01:41:12.223Z,16
2022-11-23T01:46:17.267Z,16
2022-11-23T01:51:23.451Z,16
2022-11-23T01:56:29.533Z,16
2022-11-23T02:01:35.670Z,16
2022-11-23T02:06:41.796Z,16
2022-11-23T02:11:47.827Z,16
2022-11-23T02:16:53.969Z,16
2022-11-23T02:21:59.930Z,16
2022-11-23T02:27:06.034Z,16
2022-11-23T02:32:12.243Z,16
2022-11-23T02:37:18.240Z,16
2022-11-23T02:42:24.345Z,16
2022-11-23T02:47:29.439Z,16
2022-11-23T02:52:35.590Z,16
2022-11-23T02:57:41.662Z,16
2022-11-23T03:02:47.763Z,15.9
2022-11-23T03:07:53.779Z,15.9
2022-11-23T03:12:59.833Z,15.9
2022-11-23T03:18:05.079Z,15.9
2022-11-23T03:23:11.040Z,15.9
2022-11-23T03:28:17.113Z,15.9
2022-11-23T03:33:23.330Z,15.9
2022-11-23T03:38:29.373Z,15.9
2022-11-23T03:43:35.597Z,15.9
2022-11-23T03:48:41.554Z,15.9
2022-11-23T03:53:47.614Z,15.9
2022-11-23T03:58:53.673Z,15.9
2022-11-23T04:03:59.761Z,15.9
2022-11-23T04:09:05.955Z,15.9
2022-11-23T04:14:11.930Z,15.9
2022-11-23T04:19:18.048Z,15.9
2022-11-23T04:24:24.234Z,15.9
2022-11-23T04:29:30.208Z,15.9
2022-11-23T04:34:36.289Z,15.8
2022-11-23T04:39:42.448Z,15.8
2022-11-23T04:44:48.518Z,15.8
2022-11-23T04:49:53.686Z,15.8
2022-11-23T04:54:59.681Z,15.8
2022-11-23T05:00:05.778Z,15.8
2022-11-23T05:05:11.944Z,15.8
2022-11-23T05:10:18.083Z,15.8
2022-11-23T05:15:24.150Z,15.8
2022-11-23T05:20:29.241Z,15.8
2022-11-23T05:25:35.296Z,15.8
2022-11-23T05:30:41.322Z,15.8
2022-11-23T05:35:47.427Z,15.8
2022-11-23T05:40:53.561Z,15.8
2022-11-23T05:45:59.737Z,15.8
2022-11-23T05:51:05.689Z,15.8
2022-11-23T05:56:11.893Z,15.8
2022-11-23T06:01:17.923Z,15.8
2022-11-23T06:06:23.960Z,15.9
2022-11-23T06:11:30.187Z,16
2022-11-23T06:16:36.247Z,16.2
2022-11-23T06:21:42.237Z,16.3
2022-11-23T06:26:48.354Z,16.4
2022-11-23T06:31:53.494Z,16.5
2022-11-23T06:36:59.677Z,16.7
2022-11-23T06:42:05.682Z,16.8
2022-11-23T06:47:11.847Z,16.9
2022-11-23T06:52:16.872Z,17
2022-11-23T06:57:23.013Z,17.1
2022-11-23T07:02:28.033Z,17.1
2022-11-23T07:07:34.132Z,17.2
2022-11-23T07:12:40.256Z,17.4
2022-11-23T07:17:46.399Z,17.5
2022-11-23T07:22:52.371Z,17.5
2022-11-23T07:27:58.469Z,17.4
2022-11-23T07:33:04.646Z,17.3
2022-11-23T07:38:10.773Z,17.4
2022-11-23T07:43:15.848Z,17.4
2022-11-23T07:48:22.024Z,17.5
2022-11-23T07:53:28.002Z,17.5
2022-11-23T07:58:34.217Z,17.5
2022-11-23T08:03:40.153Z,17.5
2022-11-23T08:08:46.223Z,17.5
2022-11-23T08:13:52.447Z,17.5
2022-11-23T08:18:58.413Z,17.6
2022-11-23T08:24:03.512Z,17.6
2022-11-23T08:29:09.688Z,17.5
2022-11-23T08:34:15.766Z,17.5
2022-11-23T08:39:21.905Z,17.6
2022-11-23T08:44:28.026Z,17.6
2022-11-23T08:49:34.107Z,17.6
2022-11-23T08:54:40.160Z,17.6
2022-11-23T08:59:46.246Z,17.6
2022-11-23T09:04:52.402Z,17.6
2022-11-23T09:09:58.449Z,17.6
2022-11-23T09:15:04.518Z,17.7
2022-11-23T09:20:10.544Z,17.7
2022-11-23T09:25:16.711Z,17.7
2022-11-23T09:30:22.713Z,17.6
2022-11-23T09:35:29.007Z,17.6
2022-11-23T09:40:34.915Z,17.6
2022-11-23T09:45:41.181Z,17.7
2022-11-23T09:50:47.089Z,17.7
2022-11-23T09:55:53.331Z,17.7
2022-11-23T10:00:59.365Z,17.7
2022-11-23T10:06:05.475Z,17.7
2022-11-23T10:11:11.569Z,17.7
2022-11-23T10:16:17.629Z,17.7
2022-11-23T10:21:23.678Z,17.7
2022-11-23T10:26:28.741Z,17.6
2022-11-23T10:31:34.884Z,17.7
2022-11-23T10:36:40.985Z,17.7
2022-11-23T10:41:47.164Z,17.7
2022-11-23T10:46:53.232Z,17.7
2022-11-23T10:51:59.242Z,17.7
2022-11-23T10:57:05.414Z,17.7
2022-11-23T11:02:11.444Z,17.7
2022-11-23T11:07:17.467Z,17.8
2022-11-23T11:12:23.637Z,17.8
2022-11-23T11:17:29.662Z,17.8
2022-11-23T11:22:35.794Z,17.8
2022-11-23T11:27:40.853Z,17.9
2022-11-23T11:32:46.942Z,17.9
2022-11-23T11:37:53.039Z,17.9
2022-11-23T11:42:59.265Z,17.9
2022-11-23T11:48:05.274Z,17.8
2022-11-23T11:53:11.325Z,17.8
2022-11-23T11:58:16.421Z,17.8
2022-11-23T12:03:22.522Z,17.8
2022-11-23T12:08:28.700Z,17.8
2022-11-23T12:13:34.713Z,17.9
2022-11-23T12:18:40.804Z,17.9
2022-11-23T12:23:47.060Z,17.9
2022-11-23T12:28:53.105Z,17.9
2022-11-23T12:33:59.252Z,17.9
2022-11-23T12:39:05.281Z,17.9
2022-11-23T12:44:11.326Z,17.9
2022-11-23T12:49:17.427Z,17.9
2022-11-23T12:54:23.595Z,17.9
2022-11-23T12:59:29.664Z,17.9
2022-11-23T13:04:35.803Z,17.9
2022-11-23T13:09:41.716Z,17.9
2022-11-23T13:14:47.800Z,17.9
2022-11-23T13:19:54.062Z,17.9
2022-11-23T13:25:00.210Z,17.9
2022-11-23T13:30:06.075Z,17.9
2022-11-23T13:35:12.163Z,17.9
2022-11-23T13:40:17.399Z,17.9
2022-11-23T13:45:23.541Z,17.9
2022-11-23T13:50:29.448Z,17.9
2022-11-23T13:55:35.805Z,17.9
2022-11-23T14:00:41.830Z,17.9
2022-11-23T14:05:47.896Z,17.9
2022-11-23T14:10:53.963Z,17.9
2022-11-23T14:16:00.103Z,17.9
2022-11-23T14:21:06.173Z,17.9
2022-11-23T14:26:12.329Z,17.9
2022-11-23T14:31:18.460Z,17.9
2022-11-23T14:36:24.277Z,17.9
2022-11-23T14:41:30.554Z,17.9
2022-11-23T14:46:36.462Z,17.9
2022-11-23T14:51:42.734Z,17.9
2022-11-23T14:56:47.664Z,17.9
2022-11-23T15:01:53.952Z,17.9
2022-11-23T15:06:59.851Z,17.9
2022-11-23T15:12:06.012Z,17.9
2022-11-23T15:17:12.258Z,17.9
2022-11-23T15:22:18.367Z,17.9
2022-11-23T15:27:24.374Z,17.9
2022-11-23T15:32:30.454Z,17.9
2022-11-23T15:37:36.565Z,17.9
2022-11-23T15:42:42.648Z,17.9
2022-11-23T15:47:48.729Z,17.9
2022-11-23T15:52:54.803Z,17.9
2022-11-23T15:58:00.915Z,17.9
2022-11-23T16:03:07.028Z,17.9
2022-11-23T16:08:13.162Z,17.9
2022-11-23T16:13:19.139Z,17.9
2022-11-23T16:18:25.373Z,17.9
2022-11-23T16:23:31.421Z,17.9
2022-11-23T16:28:37.471Z,17.9
2022-11-23T16:33:42.628Z,17.9
2022-11-23T16:38:48.650Z,17.9
2022-11-23T16:43:54.833Z,17.9
2022-11-23T16:49:00.876Z,17.9
2022-11-23T16:54:06.952Z,17.9
2022-11-23T16:59:13.099Z,17.9
2022-11-23T17:04:19.115Z,17.9
2022-11-23T17:09:25.199Z,17.9
2022-11-23T17:14:31.313Z,17.9
2022-11-23T17:19:37.400Z,17.9
2022-11-23T17:24:43.378Z,17.9
2022-11-23T17:29:49.576Z,17.9
2022-11-23T17:34:55.701Z,17.9
2022-11-23T17:40:01.772Z,17.9
2022-11-23T17:45:07.882Z,17.9
2022-11-23T17:50:13.951Z,17.9
2022-11-23T17:55:20.135Z,17.8
2022-11-23T18:00:26.158Z,17.8
2022-11-23T18:05:32.230Z,17.7
2022-11-23T18:10:38.309Z,17.6
2022-11-23T18:15:44.437Z,17.6
2022-11-23T18:20:50.480Z,17.6
2022-11-23T18:25:56.525Z,17.6
2022-11-23T18:31:02.516Z,17.5
2022-11-23T18:36:08.723Z,17.5
2022-11-23T18:41:14.813Z,17.5
2022-11-23T18:46:20.810Z,17.4
2022-11-23T18:51:26.912Z,17.4
2022-11-23T18:56:33.018Z,17.4
2022-11-23T19:01:39.231Z,17.3
2022-11-23T19:06:45.173Z,17.3
2022-11-23T19:11:51.252Z,17.3
2022-11-23T19:16:57.454Z,17.3
2022-11-23T19:22:03.571Z,17.3
2022-11-23T19:27:09.529Z,17.2
2022-11-23T19:32:15.635Z,17.2
2022-11-23T19:37:20.870Z,17.2
2022-11-23T19:42:26.857Z,17.2
2022-11-23T19:47:32.909Z,17.2
2022-11-23T19:52:39.006Z,17.1
2022-11-23T19:57:45.277Z,17.1
2022-11-23T20:02:51.183Z,17.1
2022-11-23T20:07:57.423Z,17.1
2022-11-23T20:13:03.356Z,17.1
2022-11-23T20:18:09.507Z,17
2022-11-23T20:23:15.550Z,17
2022-11-23T20:28:21.652Z,17
2022-11-23T20:33:27.728Z,17
2022-11-23T20:38:33.822Z,17
2022-11-23T20:43:39.914Z,17
2022-11-23T20:48:46.002Z,16.9
2022-11-23T20:53:52.087Z,16.9
2022-11-23T20:58:58.179Z,16.9
2022-11-23T21:04:04.328Z,16.9
2022-11-23T21:09:09.394Z,16.9
2022-11-23T21:14:15.483Z,16.9
2022-11-23T21:19:21.647Z,16.9
2022-11-23T21:24:27.818Z,16.9
2022-11-23T21:29:33.885Z,16.8
2022-11-23T21:34:40.039Z,16.8
2022-11-23T21:39:46.085Z,16.8
2022-11-23T21:44:52.218Z,16.8
2022-11-23T21:49:58.273Z,16.8
2022-11-23T21:55:04.188Z,16.8
2022-11-23T22:00:10.453Z,16.8
2022-11-23T22:05:16.395Z,16.8
2022-11-23T22:10:22.472Z,16.7
2022-11-23T22:20:34.651Z,16.7
2022-11-23T22:25:40.765Z,16.7
2022-11-23T22:30:46.834Z,16.7
2022-11-23T22:35:52.919Z,16.7
2022-11-23T22:40:58.027Z,16.7
2022-11-23T22:46:04.122Z,16.7
2022-11-23T22:51:10.215Z,16.7
2022-11-23T22:56:16.339Z,16.6
2022-11-23T23:01:22.385Z,16.6
2022-11-23T23:06:28.484Z,16.6
2022-11-23T23:11:34.577Z,16.6
2022-11-23T23:16:40.666Z,16.6
2022-11-23T23:21:46.757Z,16.6
2022-11-23T23:26:52.845Z,16.6
2022-11-23T23:31:58.921Z,16.6
2022-11-23T23:37:05.026Z,16.6
2022-11-23T23:42:11.114Z,16.5
2022-11-23T23:47:17.198Z,16.5
2022-11-23T23:52:23.296Z,16.5
2022-11-23T23:57:29.404Z,16.5
